createdAt,value
2022-12-29T00:00:08.403Z,-0.40
2022-12-29T00:02:10.724Z,-0.20
2022-12-29T00:04:16.333Z,-0.40
2022-12-29T00:06:18.281Z,-0.40
2022-12-29T00:08:20.209Z,-0.50
2022-12-29T00:10:22.125Z,-0.50
2022-12-29T00:12:24.106Z,-0.50
2022-12-29T00:14:49.177Z,-0.60
2022-12-29T00:17:01.936Z,-0.60
2022-12-29T00:19:05.445Z,-0.60
2022-12-29T00:21:27.332Z,-0.70
2022-12-29T00:23:48.003Z,-0.50
2022-12-29T00:26:08.393Z,-0.60
2022-12-29T00:28:29.167Z,-0.80
2022-12-29T00:30:49.707Z,-0.90
2022-12-29T00:33:10.351Z,-0.90
2022-12-29T00:35:19.122Z,-1.00
2022-12-29T00:37:41.236Z,-1.00
2022-12-29T00:40:01.877Z,-1.00
2022-12-29T00:42:26.470Z,-1.10
2022-12-29T00:44:28.343Z,-1.00
2022-12-29T00:46:30.296Z,-1.10
2022-12-29T00:48:50.737Z,-1.20
2022-12-29T00:50:57.147Z,-1.20
2022-12-29T00:52:59.047Z,-1.30
2022-12-29T00:55:00.877Z,-1.20
2022-12-29T00:57:03.708Z,-1.00
2022-12-29T00:59:11.778Z,-1.00
2022-12-29T01:01:14.748Z,-1.20
2022-12-29T01:03:16.825Z,-1.20
2022-12-29T01:05:19.984Z,-1.30
2022-12-29T01:07:22.038Z,-1.20
2022-12-29T01:09:50.251Z,-1.30
2022-12-29T01:11:52.570Z,-1.20
2022-12-29T01:13:54.499Z,-1.30
2022-12-29T01:15:56.537Z,-1.30
2022-12-29T01:17:58.563Z,-1.30
2022-12-29T01:20:00.454Z,-1.10
2022-12-29T01:22:02.722Z,-1.20
2022-12-29T01:24:04.862Z,-1.30
2022-12-29T01:26:11.616Z,-1.40
2022-12-29T01:28:13.484Z,-1.40
2022-12-29T01:30:16.086Z,-1.10
2022-12-29T01:32:20.326Z,-1.10
2022-12-29T01:34:22.047Z,-1.20
2022-12-29T01:36:24.997Z,-1.00
2022-12-29T01:38:26.881Z,-1.10
2022-12-29T01:40:29.411Z,-1.00
2022-12-29T01:42:31.213Z,-1.20
2022-12-29T01:44:50.183Z,-1.10
2022-12-29T01:46:52.563Z,-1.30
2022-12-29T01:49:08.832Z,-1.30
2022-12-29T01:51:10.894Z,-1.10
2022-12-29T01:53:21.345Z,-1.30
2022-12-29T01:55:23.962Z,-1.40
2022-12-29T01:57:31.197Z,-1.50
2022-12-29T01:59:39.583Z,-1.40
2022-12-29T02:01:41.659Z,-1.50
2022-12-29T02:03:43.748Z,-1.40
2022-12-29T02:06:16.439Z,-1.30
2022-12-29T02:08:20.376Z,-1.40
2022-12-29T02:10:25.504Z,-1.30
2022-12-29T02:12:27.365Z,-1.40
2022-12-29T02:14:30.421Z,-1.50
2022-12-29T02:16:44.521Z,-1.50
2022-12-29T02:19:24.356Z,-1.50
2022-12-29T02:22:03.969Z,-1.60
2022-12-29T02:24:17.521Z,-1.60
2022-12-29T02:26:26.850Z,-1.60
2022-12-29T02:28:46.309Z,-1.70
2022-12-29T02:31:27.462Z,-1.70
2022-12-29T02:33:59.898Z,-1.80
2022-12-29T02:36:01.729Z,-1.80
2022-12-29T02:38:03.541Z,-1.80
2022-12-29T02:40:20.164Z,-1.80
2022-12-29T02:42:30.959Z,-1.90
2022-12-29T02:45:11.728Z,-1.80
2022-12-29T02:47:23.576Z,-1.80
2022-12-29T02:49:34.614Z,-1.90
2022-12-29T02:52:18.749Z,-1.90
2022-12-29T02:54:39.445Z,-1.90
2022-12-29T02:56:41.405Z,-1.90
2022-12-29T02:58:43.149Z,-1.90
2022-12-29T03:01:20.336Z,-1.90
2022-12-29T03:03:28.526Z,-1.90
2022-12-29T03:05:33.298Z,-1.90
2022-12-29T03:07:54.055Z,-1.90
2022-12-29T03:09:55.898Z,-2.00
2022-12-29T03:12:46.974Z,-2.00
2022-12-29T03:15:30.212Z,-2.00
2022-12-29T03:17:46.250Z,-2.00
2022-12-29T03:19:52.322Z,-2.00
2022-12-29T03:22:15.574Z,-2.00
2022-12-29T03:24:26.361Z,-2.00
2022-12-29T03:26:28.848Z,-2.00
2022-12-29T03:28:39.804Z,-2.10
2022-12-29T03:30:44.672Z,-2.10
2022-12-29T03:32:59.668Z,-2.10
2022-12-29T03:35:03.021Z,-2.00
2022-12-29T03:37:14.038Z,-2.00
2022-12-29T03:39:18.228Z,-1.90
2022-12-29T03:41:24.939Z,-2.00
2022-12-29T03:43:28.111Z,-2.00
2022-12-29T03:45:30.030Z,-2.00
2022-12-29T03:47:31.874Z,-2.10
2022-12-29T03:49:34.050Z,-1.80
2022-12-29T03:51:35.988Z,-2.10
2022-12-29T03:53:37.802Z,-1.90
2022-12-29T03:55:39.928Z,-2.00
2022-12-29T03:57:41.843Z,-2.00
2022-12-29T03:59:43.661Z,-2.00
2022-12-29T04:01:45.673Z,-2.20
2022-12-29T04:03:47.617Z,-2.20
2022-12-29T04:05:49.467Z,-2.30
2022-12-29T04:07:52.617Z,-2.30
2022-12-29T04:09:54.491Z,-2.30
2022-12-29T04:11:56.266Z,-2.10
2022-12-29T04:13:58.092Z,-2.10
2022-12-29T04:15:59.989Z,-2.00
2022-12-29T04:18:01.805Z,-2.10
2022-12-29T04:20:22.678Z,-2.10
2022-12-29T04:22:24.537Z,-2.10
2022-12-29T04:24:26.416Z,-2.10
2022-12-29T04:26:28.332Z,-2.10
2022-12-29T04:28:30.345Z,-2.20
2022-12-29T04:30:32.459Z,-2.10
2022-12-29T04:32:34.174Z,-2.10
2022-12-29T04:34:36.306Z,-2.00
2022-12-29T04:36:38.313Z,-2.00
2022-12-29T04:38:40.258Z,-2.10
2022-12-29T04:40:42.900Z,-2.10
2022-12-29T04:42:44.822Z,-2.10
2022-12-29T04:44:46.556Z,-2.10
2022-12-29T04:46:48.421Z,-2.20
2022-12-29T04:48:50.279Z,-2.20
2022-12-29T04:50:52.109Z,-2.20
2022-12-29T04:52:54.313Z,-2.30
2022-12-29T04:54:56.230Z,-2.30
2022-12-29T04:56:57.968Z,-2.40
2022-12-29T04:58:59.866Z,-2.40
2022-12-29T05:01:01.763Z,-2.40
2022-12-29T05:03:03.749Z,-2.50
2022-12-29T05:05:06.528Z,-2.50
2022-12-29T05:07:08.994Z,-2.50
2022-12-29T05:09:12.042Z,-2.50
2022-12-29T05:11:13.919Z,-2.50
2022-12-29T05:13:15.689Z,-2.50
2022-12-29T05:15:18.584Z,-2.60
2022-12-29T05:17:20.685Z,-2.60
2022-12-29T05:19:22.506Z,-2.70
2022-12-29T05:21:24.395Z,-2.70
2022-12-29T05:23:26.161Z,-2.60
2022-12-29T05:25:28.075Z,-2.60
2022-12-29T05:27:29.829Z,-2.70
2022-12-29T05:29:31.739Z,-2.70
2022-12-29T05:31:33.726Z,-2.70
2022-12-29T05:33:35.807Z,-2.60
2022-12-29T05:35:37.651Z,-2.70
2022-12-29T05:37:39.477Z,-2.70
2022-12-29T05:39:41.367Z,-2.70
2022-12-29T05:41:43.104Z,-2.70
2022-12-29T05:43:45.036Z,-2.70
2022-12-29T05:45:49.308Z,-2.60
2022-12-29T05:47:51.173Z,-2.60
2022-12-29T05:49:53.536Z,-2.60
2022-12-29T05:51:55.518Z,-2.70
2022-12-29T05:53:57.314Z,-2.60
2022-12-29T05:55:59.231Z,-2.60
2022-12-29T05:58:01.031Z,-2.70
2022-12-29T06:00:04.975Z,-2.60
2022-12-29T06:02:07.063Z,-2.60
2022-12-29T06:04:09.263Z,-2.40
2022-12-29T06:06:11.079Z,-2.40
2022-12-29T06:08:13.362Z,-2.30
2022-12-29T06:10:15.318Z,-2.30
2022-12-29T06:12:17.306Z,-2.40
2022-12-29T06:14:19.171Z,-2.30
2022-12-29T06:16:20.981Z,-2.30
2022-12-29T06:18:25.268Z,-2.10
2022-12-29T06:20:27.170Z,-2.00
2022-12-29T06:22:28.918Z,-2.00
2022-12-29T06:24:30.951Z,-2.00
2022-12-29T06:26:32.855Z,-2.00
2022-12-29T06:28:34.735Z,-1.90
2022-12-29T06:30:36.675Z,-1.90
2022-12-29T06:32:38.641Z,-1.80
2022-12-29T06:34:40.583Z,-1.80
2022-12-29T06:36:42.600Z,-1.70
2022-12-29T06:38:44.425Z,-1.40
2022-12-29T06:40:46.511Z,-1.60
2022-12-29T06:42:48.510Z,-1.60
2022-12-29T06:44:50.732Z,-1.60
2022-12-29T06:46:52.609Z,-1.50
2022-12-29T06:48:54.487Z,-1.50
2022-12-29T06:50:56.389Z,-1.30
2022-12-29T06:52:58.247Z,-1.30
2022-12-29T06:55:00.314Z,-1.00
2022-12-29T06:57:02.303Z,-1.10
2022-12-29T06:59:04.295Z,-1.10
2022-12-29T07:01:06.323Z,-1.10
2022-12-29T07:03:08.225Z,-1.10
2022-12-29T07:05:11.248Z,-1.00
2022-12-29T07:07:13.174Z,-1.00
2022-12-29T07:09:15.063Z,-1.00
2022-12-29T07:11:16.936Z,-1.10
2022-12-29T07:13:19.493Z,-1.00
2022-12-29T07:15:21.409Z,-1.00
2022-12-29T07:17:23.136Z,-1.00
2022-12-29T07:19:25.001Z,-1.00
2022-12-29T07:21:27.234Z,-1.00
2022-12-29T07:23:29.131Z,-1.10
2022-12-29T07:25:30.957Z,-1.00
2022-12-29T07:27:32.952Z,-1.10
2022-12-29T07:29:34.855Z,-0.90
2022-12-29T07:31:36.885Z,-1.00
2022-12-29T07:33:38.903Z,-0.90
2022-12-29T07:35:40.639Z,-0.90
2022-12-29T07:37:42.524Z,-0.70
2022-12-29T07:39:44.403Z,-0.70
2022-12-29T07:41:46.338Z,-0.60
2022-12-29T07:43:49.881Z,-0.60
2022-12-29T07:45:51.911Z,-0.50
2022-12-29T07:47:53.661Z,-0.40
2022-12-29T07:49:55.577Z,-0.20
2022-12-29T07:51:57.475Z,-0.10
2022-12-29T07:54:01.516Z,0.00
2022-12-29T07:56:03.535Z,0.00
2022-12-29T07:58:05.361Z,0.10
2022-12-29T08:00:08.069Z,0.20
2022-12-29T08:02:12.745Z,0.40
2022-12-29T08:04:16.963Z,0.50
2022-12-29T08:06:19.593Z,0.90
2022-12-29T08:08:22.889Z,1.40
2022-12-29T08:10:25.424Z,1.50
2022-12-29T08:12:27.728Z,1.60
2022-12-29T08:14:29.655Z,1.60
2022-12-29T08:16:31.704Z,1.80
2022-12-29T08:18:33.525Z,1.80
2022-12-29T08:20:35.414Z,1.90
2022-12-29T08:22:37.406Z,1.90
2022-12-29T08:24:39.146Z,2.00
2022-12-29T08:26:41.075Z,2.20
2022-12-29T08:28:43.106Z,2.20
2022-12-29T08:30:44.899Z,2.20
2022-12-29T08:32:46.874Z,2.20
2022-12-29T08:34:48.834Z,2.30
2022-12-29T08:36:50.604Z,2.40
2022-12-29T08:38:52.676Z,2.50
2022-12-29T08:40:54.510Z,2.40
2022-12-29T08:42:56.729Z,2.60
2022-12-29T08:45:02.243Z,2.90
2022-12-29T08:47:04.183Z,3.00
2022-12-29T08:49:06.173Z,2.90
2022-12-29T08:51:09.211Z,2.70
2022-12-29T08:53:11.216Z,2.60
2022-12-29T08:55:12.934Z,2.70
2022-12-29T08:57:15.088Z,2.60
2022-12-29T08:59:17.103Z,2.60
2022-12-29T09:01:19.351Z,2.60
2022-12-29T09:03:54.479Z,2.70
2022-12-29T09:05:44.401Z,2.70
2022-12-29T09:07:47.587Z,2.60
2022-12-29T09:09:49.559Z,2.60
2022-12-29T09:11:51.463Z,2.70
2022-12-29T09:13:54.200Z,2.70
2022-12-29T09:16:00.484Z,2.80
2022-12-29T09:18:02.716Z,3.00
2022-12-29T09:20:05.522Z,3.10
2022-12-29T09:22:07.400Z,3.20
2022-12-29T09:24:09.329Z,3.40
2022-12-29T09:26:11.232Z,3.50
2022-12-29T09:28:13.415Z,3.40
2022-12-29T09:30:15.735Z,3.50
2022-12-29T09:32:18.724Z,3.60
2022-12-29T09:34:21.833Z,3.70
2022-12-29T09:36:23.608Z,3.70
2022-12-29T09:38:27.768Z,3.60
2022-12-29T09:40:34.349Z,3.60
2022-12-29T09:42:45.651Z,3.70
2022-12-29T09:45:16.513Z,3.70
2022-12-29T09:47:21.126Z,3.80
2022-12-29T09:49:47.187Z,3.80
2022-12-29T09:51:55.124Z,3.90
2022-12-29T09:54:06.462Z,4.20
2022-12-29T09:56:17.091Z,4.30
2022-12-29T09:58:36.189Z,4.40
2022-12-29T10:01:08.893Z,4.40
2022-12-29T10:03:21.476Z,4.40
2022-12-29T10:05:44.925Z,4.50
2022-12-29T10:08:17.300Z,4.40
2022-12-29T10:10:22.215Z,4.40
2022-12-29T10:12:39.533Z,4.40
2022-12-29T10:14:53.023Z,4.50
2022-12-29T10:17:18.993Z,4.40
2022-12-29T10:19:33.348Z,4.40
2022-12-29T10:21:51.499Z,4.30
2022-12-29T10:23:54.510Z,4.40
2022-12-29T10:25:58.696Z,4.40
2022-12-29T10:28:06.930Z,4.40
2022-12-29T10:30:13.942Z,4.40
2022-12-29T10:32:56.476Z,4.60
2022-12-29T10:35:06.144Z,4.60
2022-12-29T10:37:18.413Z,4.60
2022-12-29T10:39:25.342Z,4.60
2022-12-29T10:41:40.817Z,4.50
2022-12-29T10:43:46.359Z,4.50
2022-12-29T10:45:49.730Z,4.50
2022-12-29T10:48:00.483Z,4.40
2022-12-29T10:50:04.066Z,4.50
2022-12-29T10:52:07.275Z,4.60
2022-12-29T10:54:19.484Z,4.60
2022-12-29T10:56:36.712Z,4.60
2022-12-29T10:58:39.100Z,4.50
2022-12-29T11:00:41.495Z,4.60
2022-12-29T11:02:52.712Z,4.60
2022-12-29T11:05:15.234Z,4.60
2022-12-29T11:07:25.049Z,4.60
2022-12-29T11:09:41.875Z,4.60
2022-12-29T11:11:47.064Z,4.90
2022-12-29T11:13:59.218Z,4.80
2022-12-29T11:16:02.076Z,4.60
2022-12-29T11:18:04.098Z,4.50
2022-12-29T11:20:43.472Z,4.50
2022-12-29T11:22:46.542Z,4.50
2022-12-29T11:24:52.397Z,4.50
2022-12-29T11:27:15.713Z,4.50
2022-12-29T11:29:17.586Z,4.80
2022-12-29T11:31:23.316Z,4.80
2022-12-29T11:33:28.284Z,4.70
2022-12-29T11:35:36.012Z,4.60
2022-12-29T11:37:41.181Z,4.60
2022-12-29T11:40:16.444Z,4.60
2022-12-29T11:42:23.541Z,4.60
2022-12-29T11:44:26.207Z,4.70
2022-12-29T11:46:34.931Z,4.90
2022-12-29T11:48:41.595Z,5.00
2022-12-29T11:50:49.918Z,5.10
2022-12-29T11:53:01.193Z,5.00
2022-12-29T11:55:06.339Z,4.90
2022-12-29T11:57:17.948Z,4.90
2022-12-29T11:59:46.922Z,4.80
2022-12-29T14:13:27.497Z,3.20
2022-12-29T14:15:29.417Z,3.40
2022-12-29T14:17:31.305Z,3.40
2022-12-29T14:19:42.282Z,3.30
2022-12-29T14:21:59.145Z,3.30
2022-12-29T14:24:38.683Z,3.30
2022-12-29T14:26:40.583Z,3.50
2022-12-29T14:28:44.995Z,3.40
2022-12-29T14:30:55.419Z,3.30
2022-12-29T14:33:12.628Z,3.30
2022-12-29T14:35:50.648Z,3.20
2022-12-29T14:38:07.790Z,3.20
2022-12-29T14:40:20.064Z,3.20
2022-12-29T14:42:23.810Z,3.40
2022-12-29T14:44:25.824Z,3.30
2022-12-29T14:46:46.976Z,3.20
2022-12-29T14:48:54.260Z,3.10
2022-12-29T14:50:56.816Z,3.20
2022-12-29T14:53:06.077Z,3.10
2022-12-29T14:55:07.984Z,3.10
2022-12-29T14:57:25.769Z,3.00
2022-12-29T14:59:28.503Z,3.00
2022-12-29T15:01:53.345Z,3.10
2022-12-29T15:03:59.822Z,3.00
2022-12-29T15:06:12.434Z,2.90
2022-12-29T15:08:19.621Z,2.90
2022-12-29T15:10:23.950Z,2.80
2022-12-29T15:12:40.687Z,2.70
2022-12-29T15:14:52.843Z,2.70
2022-12-29T15:16:54.807Z,2.70
2022-12-29T15:18:57.178Z,2.80
2022-12-29T15:21:07.290Z,2.70
2022-12-29T15:23:17.101Z,2.70
2022-12-29T15:25:19.357Z,2.60
2022-12-29T15:27:24.164Z,2.60
2022-12-29T15:29:32.045Z,2.50
2022-12-29T15:31:34.001Z,2.40
2022-12-29T15:33:38.104Z,2.40
2022-12-29T15:35:40.545Z,2.30
2022-12-29T15:37:42.453Z,2.30
2022-12-29T15:39:44.362Z,2.30
2022-12-29T15:42:02.804Z,2.20
2022-12-29T15:44:18.028Z,2.20
2022-12-29T15:46:20.522Z,2.30
2022-12-29T15:48:25.436Z,2.20
2022-12-29T15:50:32.983Z,2.20
2022-12-29T15:52:35.325Z,2.10
2022-12-29T15:54:38.769Z,2.10
2022-12-29T15:56:42.610Z,2.20
2022-12-29T15:58:51.476Z,2.20
2022-12-29T16:00:59.569Z,2.30
2022-12-29T16:03:05.198Z,2.30
2022-12-29T16:05:17.517Z,2.30
2022-12-29T16:07:27.881Z,2.30
2022-12-29T16:09:55.355Z,2.30
2022-12-29T16:12:00.881Z,2.20
2022-12-29T16:14:07.744Z,2.30
2022-12-29T16:16:20.394Z,2.30
2022-12-29T16:18:33.827Z,2.20
2022-12-29T16:20:43.569Z,2.20
2022-12-29T16:22:51.592Z,2.10
2022-12-29T16:25:04.758Z,2.00
2022-12-29T16:27:15.858Z,2.00
2022-12-29T16:29:19.005Z,1.90
2022-12-29T16:31:48.836Z,1.80
2022-12-29T16:33:56.166Z,1.70
2022-12-29T16:35:58.115Z,1.80
2022-12-29T16:38:22.381Z,1.80
2022-12-29T16:40:30.326Z,1.90
2022-12-29T16:42:45.694Z,1.80
2022-12-29T16:45:01.983Z,2.00
2022-12-29T16:47:12.903Z,2.10
2022-12-29T16:49:21.526Z,2.00
2022-12-29T16:51:31.222Z,2.10
2022-12-29T16:53:37.762Z,2.00
2022-12-29T16:55:46.764Z,2.00
2022-12-29T16:57:50.806Z,2.00
2022-12-29T16:59:57.209Z,2.00
2022-12-29T17:02:01.089Z,2.00
2022-12-29T17:04:08.931Z,2.10
2022-12-29T17:06:19.063Z,2.10
2022-12-29T17:08:24.892Z,2.10
2022-12-29T17:10:46.955Z,2.10
2022-12-29T17:12:49.867Z,2.10
2022-12-29T17:15:02.990Z,2.00
2022-12-29T17:17:10.107Z,2.00
2022-12-29T17:19:27.795Z,2.00
2022-12-29T17:21:29.747Z,2.00
2022-12-29T17:23:34.621Z,1.90
2022-12-29T17:25:38.594Z,2.00
2022-12-29T17:27:44.652Z,1.90
2022-12-29T17:29:47.587Z,2.00
2022-12-29T17:31:49.657Z,2.00
2022-12-29T17:33:53.318Z,2.00
2022-12-29T17:35:55.892Z,2.00
2022-12-29T17:37:58.166Z,2.00
2022-12-29T17:40:00.133Z,2.10
2022-12-29T17:42:02.065Z,2.10
2022-12-29T17:44:05.092Z,2.10
2022-12-29T17:46:09.116Z,2.20
2022-12-29T17:48:17.928Z,2.40
2022-12-29T17:50:22.083Z,2.30
2022-12-29T17:52:24.125Z,2.30
2022-12-29T17:54:26.559Z,2.30
2022-12-29T17:56:28.544Z,2.20
2022-12-29T17:58:33.506Z,2.20
2022-12-29T18:00:35.842Z,2.20
2022-12-29T18:02:37.938Z,2.20
2022-12-29T18:04:40.070Z,2.20
2022-12-29T18:06:42.962Z,2.30
2022-12-29T18:08:45.562Z,2.40
2022-12-29T18:10:48.034Z,2.30
2022-12-29T18:12:52.133Z,2.40
2022-12-29T18:14:54.294Z,2.40
2022-12-29T18:16:56.196Z,2.30
2022-12-29T18:18:58.089Z,2.30
2022-12-29T18:21:00.400Z,2.30
2022-12-29T18:23:02.371Z,2.30
2022-12-29T18:25:26.920Z,2.40
2022-12-29T18:27:29.288Z,2.40
2022-12-29T18:29:31.557Z,2.40
2022-12-29T18:31:35.339Z,2.40
2022-12-29T18:33:37.516Z,2.30
2022-12-29T18:35:43.060Z,2.40
2022-12-29T18:37:45.011Z,2.30
2022-12-29T18:39:46.865Z,2.30
2022-12-29T18:41:48.801Z,2.30
2022-12-29T18:43:51.151Z,2.40
2022-12-29T18:45:53.216Z,2.30
2022-12-29T18:47:55.002Z,2.40
2022-12-29T18:49:57.547Z,2.40
2022-12-29T18:51:59.451Z,2.40
2022-12-29T18:54:03.051Z,2.40
2022-12-29T18:56:06.768Z,2.40
2022-12-29T18:58:09.642Z,2.40
2022-12-29T19:00:13.245Z,2.40
2022-12-29T19:02:18.074Z,2.30
2022-12-29T19:04:20.069Z,2.60
2022-12-29T19:06:25.128Z,2.50
2022-12-29T19:08:27.946Z,2.40
2022-12-29T19:10:30.172Z,2.40
2022-12-29T19:12:32.144Z,2.40
2022-12-29T19:14:38.731Z,2.50
2022-12-29T19:16:40.775Z,2.40
2022-12-29T19:18:44.743Z,2.40
2022-12-29T19:20:50.266Z,2.30
2022-12-29T19:22:52.510Z,2.40
2022-12-29T19:24:59.761Z,2.30
2022-12-29T19:27:02.717Z,2.30
2022-12-29T19:29:06.851Z,2.30
2022-12-29T19:31:10.444Z,2.20
2022-12-29T19:33:12.667Z,2.20
2022-12-29T19:35:15.397Z,2.20
2022-12-29T19:37:17.478Z,2.10
2022-12-29T19:39:19.289Z,2.00
2022-12-29T19:41:22.652Z,1.90
2022-12-29T19:43:25.095Z,2.00
2022-12-29T19:45:30.532Z,2.00
2022-12-29T19:47:34.640Z,1.90
2022-12-29T19:49:37.211Z,1.90
2022-12-29T19:51:40.027Z,1.90
2022-12-29T19:53:42.611Z,1.90
2022-12-29T19:55:46.939Z,1.80
2022-12-29T19:57:49.545Z,1.80
2022-12-29T19:59:51.982Z,1.90
2022-12-29T20:01:54.272Z,2.10
2022-12-29T20:03:56.937Z,1.90
2022-12-29T20:05:58.936Z,1.90
2022-12-29T20:08:01.829Z,1.90
2022-12-29T20:10:06.327Z,1.80
2022-12-29T20:12:08.831Z,1.80
2022-12-29T20:14:11.248Z,1.80
2022-12-29T20:16:19.110Z,1.80
2022-12-29T20:18:28.788Z,1.80
2022-12-29T20:20:34.454Z,1.90
2022-12-29T20:22:36.676Z,1.90
2022-12-29T20:24:42.747Z,2.00
2022-12-29T20:26:49.585Z,1.80
2022-12-29T20:28:52.749Z,1.90
2022-12-29T20:30:59.498Z,1.70
2022-12-29T20:33:07.670Z,1.70
2022-12-29T20:35:12.450Z,1.60
2022-12-29T20:37:15.366Z,1.70
2022-12-29T20:39:20.160Z,1.60
2022-12-29T20:41:23.114Z,1.60
2022-12-29T20:43:25.192Z,1.80
2022-12-29T20:45:27.196Z,1.70
2022-12-29T20:47:29.443Z,1.70
2022-12-29T20:49:31.893Z,1.60
2022-12-29T20:52:03.866Z,1.60
2022-12-29T20:53:57.262Z,1.50
2022-12-29T20:56:05.622Z,1.60
2022-12-29T20:58:23.519Z,1.60
2022-12-29T21:00:26.330Z,1.50
2022-12-29T21:02:28.363Z,1.50
2022-12-29T21:04:49.956Z,1.50
2022-12-29T21:06:52.677Z,1.40
2022-12-29T21:08:55.280Z,1.40
2022-12-29T21:11:01.034Z,1.40
2022-12-29T21:13:03.316Z,1.40
2022-12-29T21:15:05.741Z,1.30
2022-12-29T21:17:07.898Z,1.30
2022-12-29T21:19:09.907Z,1.20
2022-12-29T21:21:24.071Z,1.20
2022-12-29T21:23:26.974Z,1.20
2022-12-29T21:25:39.547Z,1.20
2022-12-29T21:27:44.535Z,1.20
2022-12-29T21:29:46.528Z,1.10
2022-12-29T21:31:48.550Z,1.10
2022-12-29T21:33:51.359Z,1.10
2022-12-29T21:35:53.265Z,1.10
2022-12-29T21:37:55.140Z,1.00
2022-12-29T21:39:57.145Z,1.00
2022-12-29T21:42:00.593Z,1.00
2022-12-29T21:44:35.005Z,1.00
2022-12-29T21:46:38.525Z,0.90
2022-12-29T21:48:41.076Z,0.90
2022-12-29T21:51:03.936Z,0.90
2022-12-29T21:53:05.891Z,0.90
2022-12-29T21:55:09.072Z,0.90
2022-12-29T21:57:16.584Z,1.00
2022-12-29T21:59:41.384Z,1.00
2022-12-29T22:02:01.743Z,1.20
2022-12-29T22:04:22.301Z,1.20
2022-12-29T22:06:42.813Z,1.20
2022-12-29T22:09:03.631Z,1.40
2022-12-29T22:11:27.609Z,1.20
2022-12-29T22:13:32.695Z,1.30
2022-12-29T22:15:37.347Z,1.20
2022-12-29T22:17:43.656Z,1.20
2022-12-29T22:19:48.733Z,1.10
2022-12-29T22:21:50.623Z,1.10
2022-12-29T22:23:52.513Z,1.10
2022-12-29T22:25:54.387Z,1.10
2022-12-29T22:27:59.617Z,1.00
2022-12-29T22:30:02.020Z,1.00
2022-12-29T22:32:04.028Z,1.00
2022-12-29T22:34:06.148Z,0.90
2022-12-29T22:36:07.984Z,0.90
2022-12-29T22:38:09.946Z,0.90
2022-12-29T22:40:12.197Z,0.90
2022-12-29T22:42:14.209Z,0.90
2022-12-29T22:44:15.959Z,0.90
2022-12-29T22:46:18.037Z,0.90
2022-12-29T22:48:20.389Z,0.80
2022-12-29T22:50:22.388Z,0.70
2022-12-29T22:52:24.417Z,0.70
2022-12-29T22:54:26.559Z,0.70
2022-12-29T22:56:28.309Z,0.70
2022-12-29T22:58:30.539Z,0.70
2022-12-29T23:00:32.532Z,0.70
2022-12-29T23:02:34.873Z,0.70
2022-12-29T23:06:59.286Z,0.70
2022-12-29T23:09:04.135Z,0.70
2022-12-29T23:11:08.801Z,0.70
2022-12-29T23:13:10.675Z,0.70
2022-12-29T23:15:12.600Z,0.70
2022-12-29T23:17:14.520Z,0.70
2022-12-29T23:19:16.630Z,0.70
2022-12-29T23:21:19.849Z,0.70
2022-12-29T23:23:48.098Z,0.70
2022-12-29T23:25:50.580Z,0.70
2022-12-29T23:27:52.452Z,0.70
2022-12-29T23:29:54.342Z,0.60
2022-12-29T23:31:56.193Z,0.50
2022-12-29T23:33:59.699Z,0.50
2022-12-29T23:36:01.571Z,0.50
2022-12-29T23:38:03.436Z,0.50
2022-12-29T23:40:07.126Z,0.40
2022-12-29T23:42:09.115Z,0.40
2022-12-29T23:44:10.861Z,0.40
2022-12-29T23:46:18.677Z,0.30
2022-12-29T23:48:20.746Z,0.30
2022-12-29T23:50:22.932Z,0.40
2022-12-29T23:52:24.776Z,0.30
2022-12-29T23:54:27.754Z,0.30
2022-12-29T23:56:29.810Z,0.20
2022-12-29T23:58:32.574Z,0.20
